Time;durP1;ratioP1;P1;durP2;ratioP2;P2;SDS_P1;SDS_P2;PMS_P1;PMS_P2;Temp;Humidity;BMP_temperature;BMP_pressure;BME280_temperature;BME280_humidity;BME280_pressure;Samples;Min_cycle;Max_cycle;Signal;HPM_P1;HPM_P2
2024/04/20 00:03:18;;;;;;;4.83;4.00;;;;;;;5.91;100.00;99327.75;5030489;57;1136502;-78
2024/04/20 00:08:24;;;;;;;4.50;4.10;;;;;;;5.92;100.00;99331.57;5043403;56;1136603;-79
2024/04/20 00:13:44;;;;;;;5.40;4.60;;;;;;;5.95;100.00;99333.97;5119477;56;1136488;-79
2024/04/20 00:18:43;;;;;;;5.03;4.53;;;;;;;5.93;100.00;99338.49;5059062;56;1136578;-78
2024/04/20 00:23:49;;;;;;;5.17;4.60;;;;;;;5.92;100.00;99342.06;4936262;57;1134353;-78
2024/04/20 00:28:54;;;;;;;7.10;5.37;;;;;;;5.94;100.00;99336.70;4875254;57;1136700;-78
2024/04/20 00:34:00;;;;;;;5.47;4.97;;;;;;;5.94;100.00;99338.85;5007144;56;1136582;-79
2024/04/20 00:39:05;;;;;;;5.80;5.30;;;;;;;5.96;100.00;99338.70;5114894;56;1136617;-79
2024/04/20 00:44:11;;;;;;;8.70;5.93;;;;;;;6.00;100.00;99342.30;4997896;56;1136437;-78
2024/04/20 00:49:18;;;;;;;12.07;6.63;;;;;;;5.96;100.00;99344.79;4968365;57;1136715;-79
2024/04/20 00:54:25;;;;;;;10.00;6.40;;;;;;;5.91;100.00;99344.33;5098299;56;1138838;-79
2024/04/20 00:59:31;;;;;;;9.57;6.60;;;;;;;5.91;100.00;99343.50;5004834;57;1139095;-78
2024/04/20 01:04:37;;;;;;;7.87;6.03;;;;;;;5.94;100.00;99356.38;4929017;57;1136582;-79
2024/04/20 01:09:43;;;;;;;6.67;5.93;;;;;;;5.95;100.00;99354.13;4906926;58;1137147;-78
2024/04/20 01:14:48;;;;;;;8.10;6.97;;;;;;;5.91;100.00;99353.52;4887955;58;1134370;-79
2024/04/20 01:19:55;;;;;;;9.63;6.93;;;;;;;5.87;100.00;99363.84;4940316;57;1136519;-78
2024/04/20 01:25:01;;;;;;;6.70;5.60;;;;;;;5.83;100.00;99364.19;4990535;57;1136393;-78
2024/04/20 01:30:08;;;;;;;8.73;6.90;;;;;;;5.84;100.00;99365.39;4968905;57;1136906;-78
2024/04/20 01:35:13;;;;;;;8.23;6.60;;;;;;;5.85;100.00;99372.31;4970940;57;1136772;-78
2024/04/20 01:40:19;;;;;;;10.20;7.07;;;;;;;5.86;100.00;99377.08;4990450;57;1136838;-79
2024/04/20 01:45:25;;;;;;;7.83;5.63;;;;;;;5.83;100.00;99378.62;4999387;56;1136929;-78
2024/04/20 01:50:30;;;;;;;7.70;5.73;;;;;;;5.80;100.00;99385.44;5099483;55;1134361;-79
2024/04/20 01:55:36;;;;;;;6.70;6.07;;;;;;;5.78;100.00;99388.65;4983356;57;1136583;-79
2024/04/20 02:00:42;;;;;;;7.80;5.93;;;;;;;5.81;100.00;99394.47;5022149;56;1136776;-78
2024/04/20 02:05:47;;;;;;;6.20;5.60;;;;;;;5.81;100.00;99395.78;4969340;56;1136732;-78
2024/04/20 02:10:53;;;;;;;6.83;6.12;;;;;;;5.81;100.00;99394.95;4879348;57;1136726;-78
2024/04/20 02:15:58;;;;;;;7.20;6.50;;;;;;;5.77;100.00;99404.86;4954948;57;1134234;-78
2024/04/20 02:21:04;;;;;;;8.37;6.37;;;;;;;5.79;100.00;99410.00;4991872;57;1136339;-79
2024/04/20 02:26:10;;;;;;;8.40;6.73;;;;;;;5.87;100.00;99408.45;5007104;56;1136277;-79
2024/04/20 02:31:15;;;;;;;8.33;6.63;;;;;;;5.93;100.00;99414.59;5044586;56;1184901;-78
2024/04/20 02:36:30;;;;;;;9.53;7.10;;;;;;;5.88;100.00;99419.78;5026051;57;1136561;-78
2024/04/20 02:41:35;;;;;;;10.70;7.30;;;;;;;5.80;100.00;99430.04;5023477;56;1136801;-79
2024/04/20 02:46:41;;;;;;;7.30;6.13;;;;;;;5.79;100.00;99427.89;5025693;56;1138658;-78
2024/04/20 02:51:46;;;;;;;9.50;6.87;;;;;;;5.83;100.00;99428.00;5045038;56;1136755;-78
2024/04/20 02:56:52;;;;;;;9.30;7.57;;;;;;;5.82;100.00;99435.50;5025481;57;1136765;-79
2024/04/20 03:01:58;;;;;;;10.63;8.13;;;;;;;5.76;100.00;99443.02;5026037;56;1134253;-78
2024/04/20 03:07:04;;;;;;;14.40;8.63;;;;;;;5.73;100.00;99454.58;5045212;55;1138893;-78
2024/04/20 03:12:10;;;;;;;10.43;7.90;;;;;;;5.75;100.00;99460.55;5025982;55;1138785;-78
2024/04/20 03:17:15;;;;;;;8.50;7.60;;;;;;;5.77;100.00;99457.34;5033925;56;1138302;-78
2024/04/20 03:22:21;;;;;;;8.63;7.80;;;;;;;5.76;100.00;99462.22;5105083;56;1136624;-79
2024/04/20 03:27:26;;;;;;;9.80;7.80;;;;;;;5.76;100.00;99467.94;5026213;57;1134440;-78
2024/04/20 03:32:32;;;;;;;8.00;7.20;;;;;;;5.76;100.00;99466.16;5026163;57;1136619;-79
2024/04/20 03:37:39;;;;;;;10.00;7.13;;;;;;;5.79;100.00;99477.73;5026033;57;1136621;-78
2024/04/20 03:42:44;;;;;;;9.47;8.13;;;;;;;5.74;100.00;99477.70;5044973;57;1138799;-78
2024/04/20 03:47:50;;;;;;;8.87;7.67;;;;;;;5.72;100.00;99486.16;4963651;58;1134383;-78
2024/04/20 03:52:55;;;;;;;12.33;9.60;;;;;;;5.71;100.00;99486.64;5045425;57;1136849;-78
2024/04/20 03:58:01;;;;;;;15.77;9.03;;;;;;;5.72;100.00;99491.41;4982320;57;1138844;-78
2024/04/20 04:03:14;;;;;;;13.67;11.07;;;;;;;5.73;100.00;99502.27;5044945;57;1138582;-78
2024/04/20 04:08:14;;;;;;;8.70;7.73;;;;;;;5.70;100.00;99511.67;5044753;57;1140692;-78
2024/04/20 04:13:19;;;;;;;9.73;7.30;;;;;;;5.73;100.00;99515.39;5066007;57;1136856;-79
2024/04/20 04:18:25;;;;;;;12.85;10.00;;;;;;;5.77;100.00;99519.47;4995728;57;1136779;-77
2024/04/20 04:23:30;;;;;;;17.10;9.98;;;;;;;5.73;100.00;99528.50;4951735;57;1140839;-79
2024/04/20 04:28:36;;;;;;;9.90;8.07;;;;;;;5.75;100.00;99538.41;4930290;57;1138613;-79
2024/04/20 04:33:41;;;;;;;14.97;8.93;;;;;;;5.77;100.00;99544.39;5008942;57;1136812;-78
2024/04/20 04:38:47;;;;;;;12.57;9.03;;;;;;;5.77;100.00;99558.34;4949425;57;1138715;-81
2024/04/20 04:43:53;;;;;;;11.23;8.57;;;;;;;5.79;100.00;99564.80;4940507;58;1138858;-79
2024/04/20 04:48:58;;;;;;;10.80;8.97;;;;;;;5.84;100.00;99571.36;4881456;58;1138394;-81
2024/04/20 04:54:04;;;;;;;6.07;5.47;;;;;;;5.85;100.00;99580.91;4922774;57;1138921;-84
2024/04/20 04:59:09;;;;;;;8.40;5.97;;;;;;;5.84;100.00;99590.20;5021753;57;1136893;-86
2024/04/20 05:04:15;;;;;;;7.93;6.07;;;;;;;5.85;100.00;99597.97;4960144;58;1136643;-80
2024/04/20 05:09:20;;;;;;;4.43;4.03;;;;;;;5.91;100.00;99603.28;4940377;58;1136729;-78
2024/04/20 05:14:26;;;;;;;7.17;5.20;;;;;;;5.88;100.00;99614.84;4940117;58;1134490;-79
2024/04/20 05:19:32;;;;;;;5.58;3.77;;;;;;;5.69;100.00;99624.11;4924439;57;1136573;-79
2024/04/20 05:24:38;;;;;;;8.00;4.00;;;;;;;5.56;100.00;99642.03;4925253;57;1136868;-78
2024/04/20 05:29:43;;;;;;;7.27;3.93;;;;;;;5.57;100.00;99662.55;4962121;58;1136714;-78
2024/04/20 05:34:49;;;;;;;6.60;3.80;;;;;;;5.54;100.00;99673.25;4962967;58;1136472;-78
2024/04/20 05:39:54;;;;;;;2.30;2.20;;;;;;;5.52;100.00;99686.94;4999144;57;1136657;-79
2024/04/20 05:45:00;;;;;;;2.67;2.08;;;;;;;5.52;100.00;99694.33;4964286;56;1136754;-79
2024/04/20 05:50:07;;;;;;;1.80;1.20;;;;;;;5.47;100.00;99708.73;4972832;57;1136568;-79
2024/04/20 05:55:12;;;;;;;0.97;0.97;;;;;;;5.41;100.00;99723.09;4992508;57;1134481;-79
2024/04/20 06:00:18;;;;;;;0.63;0.63;;;;;;;5.32;100.00;99739.94;4972744;57;1136551;-83
2024/04/20 06:05:24;;;;;;;1.15;1.15;;;;;;;5.20;100.00;99745.52;4966604;57;1136515;-82
2024/04/20 06:10:29;;;;;;;1.03;1.03;;;;;;;5.14;100.00;99755.13;4958656;57;1134725;-83
2024/04/20 06:15:35;;;;;;;1.65;0.95;;;;;;;5.08;100.00;99767.32;5056563;57;1136787;-82
2024/04/20 06:20:42;;;;;;;1.00;0.90;;;;;;;5.03;100.00;99782.06;4959794;57;1136523;-84
2024/04/20 06:25:48;;;;;;;1.33;1.23;;;;;;;5.05;100.00;99797.19;4889433;58;1136935;-83
2024/04/20 06:30:55;;;;;;;1.80;1.35;;;;;;;4.97;100.00;99809.13;4861212;58;1134294;-83
2024/04/20 06:36:01;;;;;;;1.45;1.35;;;;;;;4.85;100.00;99815.55;4824433;59;1136377;-79
2024/04/20 06:41:06;;;;;;;15.83;4.77;;;;;;;4.76;100.00;99826.61;4813477;59;1136689;-81
2024/04/20 06:46:12;;;;;;;17.00;5.13;;;;;;;4.82;100.00;99841.10;4880549;59;1136863;-83
2024/04/20 06:51:18;;;;;;;13.97;3.10;;;;;;;4.92;100.00;99853.50;4893026;58;1138609;-81
2024/04/20 06:56:23;;;;;;;3.77;2.50;;;;;;;4.90;100.00;99851.45;4880838;59;1139168;-80
2024/04/20 07:01:29;;;;;;;1.02;1.02;;;;;;;4.85;100.00;99861.88;5025900;57;1134382;-83
2024/04/20 07:06:35;;;;;;;1.00;1.00;;;;;;;4.82;100.00;99880.40;5032329;57;1136789;-81
2024/04/20 07:11:40;;;;;;;13.30;7.10;;;;;;;4.79;100.00;99891.07;4969398;57;1136727;-84
2024/04/20 07:16:47;;;;;;;3.05;2.67;;;;;;;4.84;100.00;99890.31;4985022;57;1139134;-83
2024/04/20 07:21:53;;;;;;;1.60;1.50;;;;;;;4.84;100.00;99908.19;4969771;57;1134607;-79
2024/04/20 07:26:59;;;;;;;3.93;2.33;;;;;;;4.87;100.00;99908.47;5024878;57;1136536;-83
2024/04/20 07:32:05;;;;;;;4.00;2.97;;;;;;;4.90;100.00;99924.81;5025093;56;1136413;-80
2024/04/20 07:37:11;;;;;;;4.73;2.93;;;;;;;4.87;100.00;99937.29;5050909;56;1134552;-78
2024/04/20 07:42:16;;;;;;;1.70;1.60;;;;;;;4.89;100.00;99943.24;5060795;56;1134444;-83
2024/04/20 07:47:22;;;;;;;5.17;2.63;;;;;;;4.89;100.00;99956.34;5061640;56;1136631;-82
2024/04/20 07:52:27;;;;;;;2.53;2.13;;;;;;;4.88;100.00;99977.80;5100194;56;1136551;-82
2024/04/20 07:57:33;;;;;;;2.43;2.20;;;;;;;4.95;100.00;99984.33;5044572;57;1134804;-80
2024/04/20 08:02:40;;;;;;;9.33;3.20;;;;;;;4.93;100.00;99995.84;5037535;57;1136494;-82
2024/04/20 08:07:45;;;;;;;21.77;7.07;;;;;;;4.91;100.00;100003.79;4955443;58;1136415;-82
2024/04/20 08:12:51;;;;;;;57.57;46.03;;;;;;;4.79;100.00;100020.28;5102678;56;1138544;-83
2024/04/20 08:17:56;;;;;;;5.60;2.73;;;;;;;4.77;100.00;100033.09;5085962;56;1142577;-83
2024/04/20 08:23:02;;;;;;;2.70;2.50;;;;;;;4.78;100.00;100047.88;5083853;56;1138443;-79
2024/04/20 08:28:08;;;;;;;3.63;2.87;;;;;;;4.74;100.00;100049.83;5064178;56;1136697;-84
2024/04/20 08:33:13;;;;;;;10.90;6.87;;;;;;;4.79;100.00;100063.97;4879374;58;1138946;-83
2024/04/20 08:38:19;;;;;;;4.73;4.33;;;;;;;4.82;100.00;100079.05;4898721;58;1140995;-82
2024/04/20 08:43:28;;;;;;;2.17;1.97;;;;;;;4.84;100.00;100082.88;4885593;58;1136649;-83
2024/04/20 08:48:36;;;;;;;2.30;1.40;;;;;;;4.85;100.00;100090.66;5108821;55;1136605;-82
2024/04/20 08:53:46;;;;;;;3.50;1.47;;;;;;;4.77;100.00;100108.59;5109265;55;1138720;-84
2024/04/20 08:58:52;;;;;;;7.70;3.27;;;;;;;4.82;100.00;100115.72;5120778;55;1138768;-83
2024/04/20 09:03:58;;;;;;;1.30;1.20;;;;;;;4.87;100.00;100131.17;5031552;56;1136559;-80
2024/04/20 09:09:08;;;;;;;2.13;1.87;;;;;;;4.87;100.00;100143.81;5025116;57;1138709;-83
2024/04/20 09:14:15;;;;;;;7.67;2.60;;;;;;;4.95;100.00;100151.20;5072633;56;1138670;-82
2024/04/20 09:19:22;;;;;;;41.30;18.27;;;;;;;4.99;100.00;100159.25;5092963;55;1136432;-81
2024/04/20 09:24:28;;;;;;;8.20;4.87;;;;;;;5.00;100.00;100171.89;5106516;55;1142854;-82
2024/04/20 09:29:34;;;;;;;5.22;3.52;;;;;;;4.93;100.00;100184.04;5109685;56;1138926;-84
2024/04/20 09:34:39;;;;;;;4.28;2.27;;;;;;;4.89;100.00;100202.17;5129403;56;1136457;-84
2024/04/20 09:39:45;;;;;;;2.53;2.33;;;;;;;4.77;100.00;100213.85;5109241;56;1138600;-83
2024/04/20 09:44:52;;;;;;;5.67;3.67;;;;;;;4.84;100.00;100222.59;5017915;57;1138722;-84
2024/04/20 09:49:58;;;;;;;2.60;2.40;;;;;;;4.79;100.00;100227.25;5065206;57;1136550;-84
2024/04/20 09:55:11;;;;;;;9.07;4.00;;;;;;;4.79;100.00;100239.03;5037881;57;1138435;-84
2024/04/20 10:00:20;;;;;;;7.23;3.20;;;;;;;4.75;100.00;100238.83;4943741;57;1138673;-82
2024/04/20 10:05:26;;;;;;;13.22;6.12;;;;;;;4.83;100.00;100250.19;4963682;57;1136590;-83
2024/04/20 10:10:33;;;;;;;3.80;2.80;;;;;;;5.00;100.00;100248.73;5024237;56;1140839;-84
2024/04/20 10:15:39;;;;;;;4.20;2.35;;;;;;;5.10;100.00;100259.05;5025890;57;1136529;-84
2024/04/20 10:20:45;;;;;;;5.83;3.13;;;;;;;5.19;100.00;100254.59;5112002;55;1136788;-80
2024/04/20 10:25:59;;;;;;;460.30;198.93;;;;;;;5.25;100.00;100269.09;4883030;59;1138418;-79
2024/04/20 10:31:03;;;;;;;161.73;85.40;;;;;;;5.30;100.00;100277.06;4961622;58;1147036;-83
2024/04/20 10:36:14;;;;;;;9.63;6.77;;;;;;;5.34;100.00;100290.00;4902764;59;1142514;-83
2024/04/20 10:41:21;;;;;;;10.67;6.83;;;;;;;5.38;100.00;100295.41;4962552;58;1138804;-82
2024/04/20 10:46:27;;;;;;;7.27;4.03;;;;;;;5.47;100.00;100298.82;4934570;57;1141072;-82
2024/04/20 10:51:32;;;;;;;5.63;3.10;;;;;;;5.45;100.00;100317.73;5018566;57;1146072;-80
2024/04/20 10:56:38;;;;;;;7.72;4.58;;;;;;;5.53;100.00;100320.27;5052840;57;1139020;-81
2024/04/20 11:01:45;;;;;;;5.97;3.60;;;;;;;5.55;100.00;100322.33;4963133;58;1138707;-84
2024/04/20 11:06:54;;;;;;;7.97;5.20;;;;;;;5.51;100.00;100336.55;4963145;58;1136572;-81
2024/04/20 11:12:03;;;;;;;7.17;3.00;;;;;;;5.38;100.00;100344.78;4971028;58;1138623;-82
2024/04/20 11:17:09;;;;;;;8.83;5.43;;;;;;;5.33;100.00;100353.87;5028641;56;1138626;-80
2024/04/20 11:22:16;;;;;;;12.20;5.03;;;;;;;5.31;100.00;100363.13;4989056;57;1136427;-83
2024/04/20 11:27:22;;;;;;;6.57;4.50;;;;;;;5.47;100.00;100366.55;5063885;57;1140754;-80
2024/04/20 11:32:28;;;;;;;8.20;4.30;;;;;;;5.62;100.00;100376.13;5047838;57;1138817;-81
2024/04/20 11:37:33;;;;;;;22.65;8.55;;;;;;;5.64;100.00;100383.45;5094955;56;1136331;-85
2024/04/20 11:42:42;;;;;;;12.85;5.85;;;;;;;5.82;100.00;100397.69;5044702;57;1140712;-79
2024/04/20 11:47:49;;;;;;;4.30;3.12;;;;;;;5.94;100.00;100392.61;4981130;57;1141034;-85
2024/04/20 11:58:20;;;;;;;5.90;3.30;;;;;;;5.89;100.00;100418.28;4962116;58;1138506;-82
2024/04/20 12:03:25;;;;;;;7.23;3.67;;;;;;;5.82;100.00;100420.84;5064714;57;1137043;-85
2024/04/20 12:08:32;;;;;;;18.80;5.80;;;;;;;5.85;100.00;100428.55;4989468;57;1136367;-82
2024/04/20 12:13:37;;;;;;;23.10;8.40;;;;;;;5.88;100.00;100444.58;4948650;58;1140861;-83
2024/04/20 12:18:45;;;;;;;8.65;4.35;;;;;;;5.83;100.00;100440.06;4958971;57;1140725;-80
2024/04/20 12:23:50;;;;;;;11.63;4.60;;;;;;;5.83;100.00;100447.94;5008861;57;1136544;-84
2024/04/20 12:28:56;;;;;;;25.23;8.07;;;;;;;5.91;100.00;100448.38;4985315;57;1140821;-84
2024/04/20 12:34:02;;;;;;;22.50;9.07;;;;;;;5.91;100.00;100461.50;5005843;57;1141167;-79
2024/04/20 12:39:10;;;;;;;13.13;5.33;;;;;;;5.86;100.00;100481.41;4992117;57;1138672;-81
2024/04/20 12:44:15;;;;;;;12.03;6.20;;;;;;;5.71;100.00;100492.80;4975838;58;1140491;-85
2024/04/20 12:49:21;;;;;;;9.90;5.97;;;;;;;5.60;100.00;100496.52;4968744;57;1140682;-81
2024/04/20 12:54:27;;;;;;;24.17;11.67;;;;;;;5.50;100.00;100509.30;4969382;58;1136756;-82
2024/04/20 12:59:32;;;;;;;8.00;4.63;;;;;;;5.44;100.00;100512.29;4802174;59;1140685;-83
2024/04/20 13:04:41;;;;;;;12.80;7.37;;;;;;;5.42;100.00;100523.79;4817115;59;1189857;-81
2024/04/20 13:09:56;;;;;;;9.47;4.97;;;;;;;5.42;100.00;100533.81;4877987;59;1138785;-83
2024/04/20 13:14:57;;;;;;;49.53;15.37;;;;;;;5.42;100.00;100541.69;4988850;56;1136857;-84
2024/04/20 13:20:04;;;;;;;20.03;8.10;;;;;;;5.42;100.00;100548.70;4868088;59;1142945;-82
2024/04/20 13:25:11;;;;;;;143.33;51.90;;;;;;;5.49;100.00;100556.63;4898885;58;1138776;-83
2024/04/20 13:30:17;;;;;;;19.10;7.93;;;;;;;5.57;100.00;100563.59;5009835;57;1142973;-84
2024/04/20 13:35:22;;;;;;;31.13;14.63;;;;;;;5.63;100.00;100568.03;5019094;57;1138826;-81
2024/04/20 13:40:28;;;;;;;12.93;6.10;;;;;;;5.72;100.00;100578.47;5027313;57;1140819;-83
2024/04/20 13:45:34;;;;;;;21.40;10.10;;;;;;;5.83;100.00;100584.41;4975641;57;1228439;-81
2024/04/20 13:50:39;;;;;;;21.70;9.50;;;;;;;5.92;100.00;100591.34;5019244;57;1247642;-81
2024/04/20 13:55:54;;;;;;;12.23;6.22;;;;;;;6.02;100.00;100592.96;5030126;57;1227112;-84
2024/04/20 14:01:02;;;;;;;11.17;5.90;;;;;;;6.15;100.00;100595.25;4990563;57;1242881;-84
2024/04/20 14:06:08;;;;;;;7.43;3.63;;;;;;;6.28;100.00;100600.16;4936487;57;1241252;-80
2024/04/20 14:11:13;;;;;;;10.17;3.40;;;;;;;6.39;100.00;100592.99;4963594;58;1241951;-85
2024/04/20 14:16:20;;;;;;;7.07;3.10;;;;;;;6.42;100.00;100598.04;4935071;58;1175317;-85
2024/04/20 14:21:25;;;;;;;18.63;6.83;;;;;;;6.34;100.00;100605.08;4932174;58;1241817;-82
2024/04/20 14:26:32;;;;;;;5.42;3.27;;;;;;;6.25;100.00;100611.34;4936551;57;1241739;-85
2024/04/20 14:31:37;;;;;;;6.53;3.47;;;;;;;6.19;100.00;100614.31;5018952;57;1227828;-82
2024/04/20 14:36:44;;;;;;;8.93;4.30;;;;;;;6.21;100.00;100630.83;4935979;57;1252263;-83
2024/04/20 14:41:50;;;;;;;23.10;13.37;;;;;;;6.16;100.00;100627.14;4937232;58;1226845;-84
2024/04/20 14:46:55;;;;;;;85.27;43.40;;;;;;;6.13;100.00;100631.25;5014115;57;1141753;-84
2024/04/20 14:52:01;;;;;;;22.07;7.93;;;;;;;6.16;100.00;100634.17;5018535;57;1247409;-85
2024/04/20 14:57:06;;;;;;;18.50;6.70;;;;;;;6.21;100.00;100646.13;5016444;57;1257697;-84
2024/04/20 15:02:12;;;;;;;18.10;6.07;;;;;;;6.23;100.00;100648.20;5034088;57;1252514;-82
2024/04/20 15:07:18;;;;;;;18.70;6.60;;;;;;;6.22;100.00;100646.97;4994414;56;1243642;-86
2024/04/20 15:12:23;;;;;;;19.90;7.23;;;;;;;6.18;100.00;100654.17;4982568;57;1249000;-81
2024/04/20 15:17:29;;;;;;;31.43;8.40;;;;;;;6.16;100.00;100657.81;4957147;58;1235117;-82
2024/04/20 15:22:34;;;;;;;13.10;4.23;;;;;;;6.14;100.00;100663.61;4939688;58;1138759;-86
2024/04/20 15:27:40;;;;;;;9.93;3.35;;;;;;;6.12;100.00;100668.09;4862017;58;1138695;-85
2024/04/20 15:32:46;;;;;;;12.70;6.10;;;;;;;6.14;100.00;100680.22;4889666;57;1136776;-84
2024/04/20 15:37:52;;;;;;;4.73;3.27;;;;;;;6.11;100.00;100683.51;4861406;58;1138640;-85
2024/04/20 15:42:59;;;;;;;7.97;3.57;;;;;;;6.02;100.00;100695.35;4886918;58;1136627;-81
2024/04/20 15:48:06;;;;;;;10.00;3.57;;;;;;;6.00;100.00;100693.27;4988951;58;1136669;-81
2024/04/20 15:53:12;;;;;;;11.03;4.97;;;;;;;5.96;100.00;100696.53;5053527;57;1138811;-81
2024/04/20 15:58:17;;;;;;;21.63;9.23;;;;;;;5.95;100.00;100708.45;5052130;56;1214464;-83
2024/04/20 16:03:23;;;;;;;11.30;4.58;;;;;;;5.92;100.00;100711.24;4960213;57;1138948;-80
2024/04/20 16:08:29;;;;;;;11.10;4.33;;;;;;;5.93;100.00;100713.79;4941224;58;1237795;-83
2024/04/20 16:13:38;;;;;;;26.23;11.30;;;;;;;5.98;100.00;100721.39;4937299;58;1178567;-80
2024/04/20 16:18:44;;;;;;;11.80;4.67;;;;;;;6.03;100.00;100726.39;5054234;57;1140825;-83
2024/04/20 16:23:49;;;;;;;21.77;7.27;;;;;;;5.90;100.00;100720.52;5025232;57;1138756;-84
2024/04/20 16:28:55;;;;;;;21.40;6.83;;;;;;;5.90;100.00;100732.79;4958353;57;1139026;-79
2024/04/20 16:34:01;;;;;;;21.27;10.53;;;;;;;5.87;100.00;100744.27;5045939;56;1138799;-85
2024/04/20 16:39:06;;;;;;;375.30;203.47;;;;;;;5.86;100.00;100751.76;5104056;56;1140911;-83
2024/04/20 16:44:12;;;;;;;116.57;66.75;;;;;;;5.81;100.00;100753.77;5083848;56;1145122;-83
2024/04/20 16:49:17;;;;;;;43.37;25.20;;;;;;;5.79;100.00;100758.28;5116935;56;1142784;-83
2024/04/20 16:54:23;;;;;;;14.67;8.80;;;;;;;5.76;100.00;100758.91;5137770;56;1140715;-83
2024/04/20 16:59:29;;;;;;;20.10;10.50;;;;;;;5.74;100.00;100764.70;5042703;56;1138576;-79
2024/04/20 17:04:34;;;;;;;16.10;6.93;;;;;;;5.71;100.00;100779.29;5034884;56;1140719;-79
2024/04/20 17:09:40;;;;;;;19.00;7.20;;;;;;;5.70;100.00;100782.37;5035318;56;1138737;-81
2024/04/20 17:14:45;;;;;;;110.15;67.27;;;;;;;5.69;100.00;100779.83;5046253;56;1138472;-84
2024/04/20 17:19:51;;;;;;;18.20;9.93;;;;;;;5.68;100.00;100786.86;5070505;56;1146850;-82
2024/04/20 17:24:56;;;;;;;14.13;6.63;;;;;;;5.67;100.00;100798.28;5052791;55;1138780;-84
2024/04/20 17:30:02;;;;;;;20.00;9.38;;;;;;;5.70;100.00;100800.75;5079936;56;1141404;-83
2024/04/20 17:35:11;;;;;;;21.83;7.80;;;;;;;5.71;100.00;100805.07;5060776;56;1138294;-85
2024/04/20 17:40:16;;;;;;;737.67;388.70;;;;;;;5.78;100.00;100814.79;5050976;56;1138676;-84
2024/04/20 17:45:22;;;;;;;195.97;102.93;;;;;;;5.81;100.00;100822.47;5087791;56;1145094;-85
2024/04/20 17:50:27;;;;;;;46.80;19.17;;;;;;;5.79;100.00;100826.98;5068004;56;1145177;-82
2024/04/20 17:55:33;;;;;;;59.30;24.93;;;;;;;5.75;100.00;100828.91;5054520;56;1181390;-82
2024/04/20 18:00:38;;;;;;;59.90;24.26;;;;;;;5.66;100.00;100837.25;5088587;56;1140523;-80
2024/04/20 18:05:44;;;;;;;28.87;12.65;;;;;;;5.61;100.00;100844.53;4929274;57;1140941;-80
2024/04/20 18:10:50;;;;;;;24.85;10.90;;;;;;;5.57;100.00;100848.23;4903482;58;1141038;-84
2024/04/20 18:15:56;;;;;;;43.63;16.20;;;;;;;5.54;100.00;100853.17;4907055;57;1140584;-77
2024/04/20 18:21:01;;;;;;;30.57;13.57;;;;;;;5.50;100.00;100856.05;4957058;57;1140680;-82
2024/04/20 18:26:07;;;;;;;28.37;13.40;;;;;;;5.47;100.00;100867.55;4899935;58;1141014;-84
2024/04/20 18:31:13;;;;;;;21.37;11.67;;;;;;;5.41;100.00;100874.86;4962194;57;1140924;-81
2024/04/20 18:36:19;;;;;;;17.27;8.07;;;;;;;5.38;100.00;100877.64;4993856;57;1140812;-84
2024/04/20 18:41:27;;;;;;;17.00;8.27;;;;;;;5.39;100.00;100890.67;4947332;57;1138800;-82
2024/04/20 18:46:31;;;;;;;14.20;8.13;;;;;;;5.44;100.00;100899.17;4955651;57;1141132;-82
2024/04/20 18:51:37;;;;;;;28.27;12.43;;;;;;;5.45;100.00;100901.34;4866268;58;1148582;-85
2024/04/20 18:56:42;;;;;;;39.65;19.10;;;;;;;5.43;100.00;100905.34;4880489;59;1140701;-84
2024/04/20 19:01:48;;;;;;;44.33;18.32;;;;;;;5.47;100.00;100908.67;4861370;57;1140760;-82
2024/04/20 19:06:53;;;;;;;38.50;15.87;;;;;;;5.47;100.00;100925.26;4896343;58;1140761;-83
2024/04/20 19:11:59;;;;;;;28.60;12.77;;;;;;;5.41;100.00;100930.80;4959474;57;1141128;-81
2024/04/20 19:17:05;;;;;;;32.43;14.87;;;;;;;5.35;100.00;100923.22;4938236;57;1140454;-85
2024/04/20 19:22:10;;;;;;;33.10;13.83;;;;;;;5.31;100.00;100925.63;4807214;58;1140623;-81
2024/04/20 19:27:16;;;;;;;32.77;14.93;;;;;;;5.24;100.00;100937.33;4821936;58;1140560;-81
2024/04/20 19:32:22;;;;;;;32.53;13.60;;;;;;;5.20;100.00;100940.56;4803471;59;1140999;-82
2024/04/20 19:37:27;;;;;;;35.67;17.77;;;;;;;5.21;100.00;100943.57;4802911;59;1140653;-85
2024/04/20 19:42:36;;;;;;;40.12;18.73;;;;;;;5.20;100.00;100950.20;4805073;59;1141045;-85
2024/04/20 19:47:42;;;;;;;31.25;15.90;;;;;;;5.15;100.00;100943.88;4894742;57;1140977;-83
2024/04/20 19:52:47;;;;;;;42.53;17.65;;;;;;;5.13;100.00;100950.13;4989042;57;1140759;-84
2024/04/20 19:57:53;;;;;;;25.77;13.05;;;;;;;5.13;100.00;100947.50;5085902;56;1140866;-85
2024/04/20 20:02:58;;;;;;;30.60;13.47;;;;;;;5.19;100.00;100950.69;5062089;57;1143198;-85
2024/04/20 20:08:04;;;;;;;33.57;14.00;;;;;;;5.19;100.00;100955.94;5097989;56;1140745;-85
2024/04/20 20:13:10;;;;;;;46.80;17.60;;;;;;;5.20;100.00;100952.81;5029758;57;1140768;-83
2024/04/20 20:18:15;;;;;;;31.57;11.70;;;;;;;5.14;100.00;100963.16;5084414;56;1141073;-81
2024/04/20 20:23:21;;;;;;;24.43;10.10;;;;;;;5.08;100.00;100971.77;5079045;56;1140604;-82
2024/04/20 20:28:26;;;;;;;28.80;11.00;;;;;;;5.03;100.00;100977.25;5017214;56;1141072;-83
2024/04/20 20:33:40;;;;;;;17.73;8.65;;;;;;;5.02;100.00;100986.49;5036527;56;1140701;-83
2024/04/20 20:38:46;;;;;;;14.40;6.35;;;;;;;4.92;100.00;100988.67;5015400;56;1138524;-84
2024/04/20 20:43:51;;;;;;;13.18;5.67;;;;;;;4.84;100.00;100990.81;5032540;56;1138679;-80
2024/04/20 20:48:58;;;;;;;8.50;4.83;;;;;;;4.87;100.00;100994.16;5098687;56;1138639;-81
2024/04/20 20:54:03;;;;;;;12.82;5.72;;;;;;;4.90;100.00;101006.23;5119111;56;1136662;-80
2024/04/20 20:59:09;;;;;;;9.87;5.30;;;;;;;4.89;100.00;101008.01;5098204;56;1138619;-80
2024/04/20 21:04:14;;;;;;;10.17;5.40;;;;;;;4.86;100.00;101009.95;5036866;56;1136334;-80
2024/04/20 21:09:21;;;;;;;8.73;4.53;;;;;;;4.80;100.00;101013.69;5047401;56;1138577;-79
2024/04/20 21:14:27;;;;;;;16.67;6.13;;;;;;;4.68;100.00;101012.94;5086112;56;1136276;-80
2024/04/20 21:19:32;;;;;;;15.30;7.17;;;;;;;4.54;100.00;101017.50;5103679;56;1138682;-77
2024/04/20 21:24:38;;;;;;;16.40;7.06;;;;;;;4.51;100.00;101014.16;5064351;56;1139023;-80
2024/04/20 21:29:46;;;;;;;21.48;10.15;;;;;;;4.49;100.00;101022.08;5073105;56;1138500;-79
2024/04/20 21:34:51;;;;;;;30.60;14.67;;;;;;;4.44;100.00;101034.97;5066203;56;1140527;-80
2024/04/20 21:39:57;;;;;;;35.27;16.63;;;;;;;4.39;100.00;101040.44;5049888;56;1140708;-78
2024/04/20 21:45:02;;;;;;;40.87;17.57;;;;;;;4.33;100.00;101049.86;5074288;56;1140901;-80
2024/04/20 21:50:08;;;;;;;36.23;15.67;;;;;;;4.23;100.00;101047.25;5107438;56;1140565;-78
2024/04/20 21:55:14;;;;;;;37.57;17.53;;;;;;;4.17;100.00;101050.12;5083866;56;1140958;-80
2024/04/20 22:00:19;;;;;;;44.20;18.37;;;;;;;4.16;100.00;101054.50;5098992;56;1140516;-78
2024/04/20 22:05:25;;;;;;;39.13;18.07;;;;;;;4.15;100.00;101062.42;5019181;56;1141051;-80
2024/04/20 22:10:31;;;;;;;34.80;15.77;;;;;;;4.13;100.00;101069.02;5071683;56;1140538;-79
2024/04/20 22:15:37;;;;;;;32.10;12.43;;;;;;;4.07;100.00;101074.99;5079378;56;1140610;-79
2024/04/20 22:20:44;;;;;;;26.07;12.43;;;;;;;3.99;100.00;101084.91;5099904;56;1141085;-78
2024/04/20 22:25:50;;;;;;;27.60;11.43;;;;;;;3.83;100.00;101080.30;5079790;56;1141177;-80
2024/04/20 22:30:55;;;;;;;30.10;11.93;;;;;;;3.74;100.00;101085.92;5079126;56;1141147;-78
2024/04/20 22:36:01;;;;;;;28.37;11.53;;;;;;;3.67;100.00;101084.45;5032760;56;1140794;-78
2024/04/20 22:41:06;;;;;;;30.07;12.30;;;;;;;3.61;100.00;101086.48;4995914;57;1141003;-79
2024/04/20 22:46:12;;;;;;;26.20;10.40;;;;;;;3.54;100.00;101084.55;5045087;56;1140639;-80
2024/04/20 22:51:17;;;;;;;26.17;10.30;;;;;;;3.48;100.00;101092.66;5099331;56;1140872;-78
2024/04/20 22:56:23;;;;;;;14.93;7.67;;;;;;;3.48;100.00;101092.66;5077623;56;1141052;-81
2024/04/20 23:01:29;;;;;;;12.67;5.20;;;;;;;3.40;100.00;101094.70;5078067;57;1138412;-80
2024/04/20 23:06:35;;;;;;;8.80;5.40;;;;;;;3.29;100.00;101097.73;5000794;56;1138489;-78